Time;durP1;ratioP1;P1;durP2;ratioP2;P2;SDS_P1;SDS_P2;PMS_P1;PMS_P2;Temp;Humidity;BMP_temperature;BMP_pressure;BME280_temperature;BME280_humidity;BME280_pressure;Samples;Min_cycle;Max_cycle;Signal;HPM_P1;HPM_P2
2023/06/11 00:00:39;;;;;;;11.18;6.32;;;;;;;25.71;73.46;97563.63;4959694;28;20566;-58
2023/06/11 00:03:08;;;;;;;12.00;7.78;;;;;;;25.67;72.81;97567.31;4967121;28;20047;-58
2023/06/11 00:05:38;;;;;;;13.63;7.50;;;;;;;25.73;73.84;97574.97;4967854;28;20054;-58
2023/06/11 00:08:09;;;;;;;10.75;6.68;;;;;;;25.85;74.02;97580.53;4956493;28;20146;-57
2023/06/11 00:10:39;;;;;;;13.18;6.78;;;;;;;25.91;74.16;97573.06;4969469;28;20059;-57
2023/06/11 00:13:08;;;;;;;11.70;7.00;;;;;;;25.97;72.58;97574.50;4969001;28;20720;-57
2023/06/11 00:15:37;;;;;;;14.80;7.13;;;;;;;26.06;71.53;97564.44;4953309;28;20086;-58
2023/06/11 00:18:07;;;;;;;10.55;6.30;;;;;;;26.04;71.23;97563.94;4936052;28;20058;-58
2023/06/11 00:20:40;;;;;;;10.07;6.05;;;;;;;26.11;72.08;97571.63;4943477;28;20039;-58
2023/06/11 00:23:10;;;;;;;8.50;6.50;;;;;;;26.15;72.08;97561.72;4958200;28;20057;-58
2023/06/11 00:25:39;;;;;;;11.27;6.40;;;;;;;26.17;70.66;97571.13;4969135;28;20063;-57
2023/06/11 00:28:09;;;;;;;12.73;6.32;;;;;;;26.26;70.45;97573.84;4968787;28;20069;-57
2023/06/11 00:30:39;;;;;;;11.05;5.80;;;;;;;26.33;71.04;97582.31;4956219;28;20058;-58
2023/06/11 00:33:09;;;;;;;9.80;5.97;;;;;;;26.32;69.55;97572.56;4967664;28;20058;-58
2023/06/11 00:35:39;;;;;;;7.28;6.28;;;;;;;26.37;69.95;97569.69;4968573;28;20065;-58
2023/06/11 00:38:09;;;;;;;15.57;7.43;;;;;;;26.47;70.79;97582.13;4962997;28;20455;-57
2023/06/11 00:40:38;;;;;;;13.93;7.72;;;;;;;26.54;70.83;97580.53;4961118;28;20047;-58
2023/06/11 00:43:08;;;;;;;15.18;7.82;;;;;;;26.71;70.08;97583.19;4957400;28;20378;-58
2023/06/11 00:45:37;;;;;;;9.68;8.02;;;;;;;26.69;68.29;97598.19;4954302;28;20870;-58
2023/06/11 00:48:07;;;;;;;9.18;6.68;;;;;;;26.79;70.62;97593.22;4955869;28;20043;-58
2023/06/11 00:50:45;;;;;;;14.32;7.53;;;;;;;26.86;70.47;97602.84;4951225;28;20514;-58
2023/06/11 00:53:17;;;;;;;11.80;6.15;;;;;;;26.92;69.97;97609.66;4960451;28;20062;-57
2023/06/11 00:55:47;;;;;;;11.50;7.00;;;;;;;26.97;70.43;97614.94;4968295;28;20125;-57
2023/06/11 00:58:18;;;;;;;13.75;6.63;;;;;;;26.88;69.14;97611.44;4967885;28;20470;-58
2023/06/11 01:00:50;;;;;;;11.80;7.60;;;;;;;26.93;69.63;97617.50;4957207;28;20046;-58
2023/06/11 01:03:26;;;;;;;18.13;8.05;;;;;;;26.93;71.00;97622.94;4956999;28;20139;-58
2023/06/11 01:06:11;;;;;;;22.25;9.82;;;;;;;26.86;70.23;97628.09;4956341;28;20057;-57
2023/06/11 01:08:41;;;;;;;18.33;10.93;;;;;;;26.79;70.86;97639.41;4967725;28;20146;-60
2023/06/11 01:11:32;;;;;;;14.45;9.63;;;;;;;26.82;70.56;97644.19;4957698;28;20078;-58
2023/06/11 01:14:05;;;;;;;15.60;10.57;;;;;;;26.83;70.87;97648.50;4966530;28;20155;-58
2023/06/11 01:17:02;;;;;;;18.92;10.27;;;;;;;27.16;72.28;97647.97;4967830;28;20376;-58
2023/06/11 01:19:43;;;;;;;22.88;10.32;;;;;;;27.25;72.18;97657.69;4958913;28;20046;-57
2023/06/11 01:22:18;;;;;;;18.92;10.52;;;;;;;27.24;71.69;97658.00;4951625;28;20057;-57
2023/06/11 01:25:07;;;;;;;18.73;10.43;;;;;;;27.27;72.46;97660.06;4961636;28;20042;-57
2023/06/11 01:27:44;;;;;;;19.30;10.70;;;;;;;27.34;70.49;97662.28;4971982;28;20074;-56
2023/06/11 01:30:20;;;;;;;19.70;11.60;;;;;;;27.46;70.85;97659.66;4959426;28;20537;-56
2023/06/11 01:32:58;;;;;;;19.60;11.27;;;;;;;27.59;70.79;97664.91;4955921;28;20047;-57
2023/06/11 01:35:35;;;;;;;28.85;12.38;;;;;;;27.61;69.48;97668.13;4943496;28;20054;-58
2023/06/11 01:38:08;;;;;;;24.60;13.00;;;;;;;27.68;69.43;97673.03;4959587;28;20042;-57
2023/06/11 01:40:45;;;;;;;22.55;12.65;;;;;;;28.06;68.72;97675.66;4955217;28;20418;-57
2023/06/11 01:43:14;;;;;;;22.33;13.43;;;;;;;28.24;67.88;97671.72;4953332;28;20046;-55
2023/06/11 01:45:44;;;;;;;22.52;13.40;;;;;;;28.27;65.81;97673.78;4953994;28;20751;-57
2023/06/11 01:48:13;;;;;;;18.88;13.52;;;;;;;28.34;66.95;97678.69;4957734;28;20053;-57
2023/06/11 01:50:43;;;;;;;21.13;14.30;;;;;;;28.75;63.43;97670.50;4972441;28;20133;-57
2023/06/11 01:53:13;;;;;;;20.30;13.65;;;;;;;29.12;62.58;97682.28;4949909;28;20057;-58
2023/06/11 01:55:42;;;;;;;20.27;13.43;;;;;;;29.45;61.12;97679.53;4960617;28;20062;-58
2023/06/11 01:58:13;;;;;;;26.50;14.23;;;;;;;29.68;60.37;97690.78;4961949;28;20101;-58
2023/06/11 02:00:43;;;;;;;21.75;12.90;;;;;;;29.75;59.41;97689.06;4960669;28;20061;-57
2023/06/11 02:03:15;;;;;;;18.38;12.48;;;;;;;30.72;56.32;97690.84;4956821;28;20099;-57
2023/06/11 02:05:45;;;;;;;25.98;14.07;;;;;;;30.60;55.58;97688.16;4957123;28;20038;-56
2023/06/11 02:08:16;;;;;;;18.92;11.55;;;;;;;32.09;52.77;97701.81;4959543;28;20042;-57
2023/06/11 02:10:45;;;;;;;18.05;11.40;;;;;;;32.12;52.78;97705.78;4957444;28;20050;-58
2023/06/11 02:13:15;;;;;;;14.77;11.00;;;;;;;31.74;53.89;97711.91;4957698;28;20531;-58
2023/06/11 02:15:45;;;;;;;16.40;10.60;;;;;;;31.29;54.93;97711.56;4967468;28;20039;-58
2023/06/11 02:18:15;;;;;;;17.70;10.55;;;;;;;30.65;57.03;97717.97;4958902;28;20062;-58
2023/06/11 02:20:45;;;;;;;20.08;10.52;;;;;;;30.19;56.58;97720.13;4956680;28;20043;-58
2023/06/11 02:23:16;;;;;;;12.93;9.18;;;;;;;29.68;58.53;97715.34;4957066;28;20146;-58
2023/06/11 02:25:46;;;;;;;13.85;9.30;;;;;;;29.18;60.49;97705.50;4958105;28;20057;-57
2023/06/11 02:28:16;;;;;;;18.27;10.00;;;;;;;28.88;62.75;97701.31;4952808;28;20074;-58
2023/06/11 02:30:46;;;;;;;20.40;9.75;;;;;;;28.69;63.74;97704.50;4957363;28;20051;-56
2023/06/11 02:33:17;;;;;;;16.52;10.68;;;;;;;28.69;66.12;97704.50;4958713;28;20411;-58
2023/06/11 02:35:46;;;;;;;15.77;10.38;;;;;;;28.60;64.29;97698.34;4958147;28;20042;-57
2023/06/11 02:38:15;;;;;;;22.05;13.02;;;;;;;28.71;60.68;97699.56;4936009;28;20437;-57
2023/06/11 02:40:44;;;;;;;19.10;11.02;;;;;;;29.20;59.72;97705.16;4958371;28;20058;-58
2023/06/11 02:43:14;;;;;;;16.73;10.95;;;;;;;29.28;61.62;97704.25;4958390;28;20088;-57
2023/06/11 02:45:43;;;;;;;17.38;10.85;;;;;;;29.28;61.14;97709.72;4966285;28;20113;-57
2023/06/11 02:48:12;;;;;;;16.38;10.27;;;;;;;29.14;59.97;97703.78;4965855;28;20047;-58
2023/06/11 02:50:42;;;;;;;11.95;9.30;;;;;;;29.59;60.55;97710.00;4956499;28;20046;-57
2023/06/11 02:53:11;;;;;;;14.30;8.93;;;;;;;29.71;58.93;97704.56;4956512;28;20046;-58
2023/06/11 02:55:41;;;;;;;16.52;9.05;;;;;;;29.95;60.07;97706.50;4962867;28;20063;-58
2023/06/11 02:58:10;;;;;;;15.75;10.85;;;;;;;29.86;59.03;97708.53;4955747;28;20055;-57
2023/06/11 03:00:40;;;;;;;14.98;9.98;;;;;;;30.11;54.48;97695.66;4946406;29;20074;-57
2023/06/11 03:03:09;;;;;;;18.92;10.77;;;;;;;29.79;55.01;97703.63;4945551;28;20657;-57
2023/06/11 03:05:43;;;;;;;18.10;10.45;;;;;;;30.06;54.48;97688.50;4943332;28;20057;-60
2023/06/11 03:08:13;;;;;;;14.60;10.55;;;;;;;30.61;58.02;97695.22;4945752;28;20043;-59
2023/06/11 03:10:43;;;;;;;19.55;11.48;;;;;;;31.83;53.36;97687.88;4942352;28;20051;-60
2023/06/11 03:13:12;;;;;;;22.15;12.13;;;;;;;32.58;50.81;97679.34;4942452;28;20179;-60
2023/06/11 03:15:45;;;;;;;27.83;14.00;;;;;;;32.38;51.21;97686.00;4951575;28;20094;-60
2023/06/11 03:18:15;;;;;;;19.77;13.82;;;;;;;32.48;49.97;97690.91;4945884;28;20078;-60
2023/06/11 03:20:45;;;;;;;22.30;12.43;;;;;;;32.69;49.01;97693.31;4945686;28;20137;-58
2023/06/11 03:23:15;;;;;;;19.58;12.57;;;;;;;33.47;49.71;97695.56;4945386;28;20047;-58
2023/06/11 03:25:45;;;;;;;18.13;10.90;;;;;;;33.48;47.19;97697.16;4945480;28;20483;-59
2023/06/11 03:28:16;;;;;;;15.43;10.50;;;;;;;33.03;47.70;97695.13;4951290;28;20067;-58
2023/06/11 03:30:46;;;;;;;13.73;8.38;;;;;;;32.47;49.87;97686.56;4954336;28;20122;-60
2023/06/11 03:33:15;;;;;;;17.85;9.45;;;;;;;32.17;49.36;97689.09;4945277;28;20180;-58
2023/06/11 03:35:45;;;;;;;15.57;8.40;;;;;;;32.21;51.02;97681.72;4945900;28;20437;-59
2023/06/11 03:38:22;;;;;;;20.50;12.25;;;;;;;31.80;49.44;97679.59;4946566;28;20054;-58
2023/06/11 03:40:52;;;;;;;19.63;12.43;;;;;;;31.69;51.21;97687.53;4946534;28;20054;-58
2023/06/11 03:43:25;;;;;;;24.63;11.75;;;;;;;31.60;50.62;97690.47;4941837;28;20047;-60
2023/06/11 03:45:55;;;;;;;19.88;11.63;;;;;;;31.54;49.83;97685.59;4947594;28;20043;-61
2023/06/11 03:48:24;;;;;;;15.82;10.90;;;;;;;31.35;52.96;97685.50;4945990;28;20150;-60
2023/06/11 03:50:54;;;;;;;20.83;14.07;;;;;;;31.22;53.97;97690.25;4946486;28;20380;-60
2023/06/11 03:53:23;;;;;;;21.15;12.90;;;;;;;31.47;52.83;97683.47;4945852;28;20074;-61
2023/06/11 03:55:54;;;;;;;14.35;10.25;;;;;;;31.81;52.73;97687.44;4946078;28;20062;-61
2023/06/11 03:58:24;;;;;;;13.95;8.27;;;;;;;31.92;53.34;97696.69;4946010;28;20059;-61
2023/06/11 04:00:54;;;;;;;18.77;11.65;;;;;;;31.86;53.88;97692.66;4938619;28;20742;-60
2023/06/11 04:03:23;;;;;;;27.23;15.40;;;;;;;31.68;55.25;97696.91;4945404;28;20051;-59
2023/06/11 04:05:53;;;;;;;22.92;15.18;;;;;;;31.60;56.13;97697.91;4938881;29;20055;-59
2023/06/11 04:08:22;;;;;;;22.30;15.18;;;;;;;31.45;56.72;97698.66;4945369;28;20126;-60
2023/06/11 04:10:52;;;;;;;27.20;15.90;;;;;;;31.56;57.13;97702.47;4926555;29;20057;-60
2023/06/11 04:13:22;;;;;;;26.75;19.33;;;;;;;31.58;56.65;97703.72;4945624;28;20392;-60
2023/06/11 04:15:53;;;;;;;30.73;21.10;;;;;;;31.74;56.96;97702.91;4945860;28;20043;-60
2023/06/11 04:18:23;;;;;;;32.90;21.45;;;;;;;31.79;57.28;97697.16;4944526;28;20051;-60
2023/06/11 04:20:54;;;;;;;32.17;20.98;;;;;;;31.86;56.94;97705.56;4943887;28;20082;-61
2023/06/11 04:23:24;;;;;;;26.48;19.42;;;;;;;31.88;56.65;97703.25;4945531;28;20138;-61
2023/06/11 04:25:55;;;;;;;31.00;20.45;;;;;;;31.90;57.11;97707.22;4943677;28;20163;-61
2023/06/11 04:28:26;;;;;;;26.42;18.55;;;;;;;31.82;57.24;97707.41;4951223;28;20047;-60
2023/06/11 04:30:58;;;;;;;30.27;20.70;;;;;;;31.78;57.43;97701.84;4957636;28;20141;-61
2023/06/11 04:33:36;;;;;;;30.50;19.63;;;;;;;31.82;57.76;97705.44;4948910;28;20055;-61
2023/06/11 04:36:08;;;;;;;26.67;19.08;;;;;;;31.71;56.90;97698.16;4947028;28;20142;-59
2023/06/11 04:38:44;;;;;;;29.83;17.83;;;;;;;31.75;57.73;97702.56;4948514;28;20047;-60
2023/06/11 04:41:16;;;;;;;28.63;18.02;;;;;;;31.93;57.58;97690.06;4948839;28;20708;-60
2023/06/11 04:43:50;;;;;;;27.92;17.92;;;;;;;31.95;56.41;97697.94;4948623;28;20047;-61
2023/06/11 04:46:21;;;;;;;32.10;19.15;;;;;;;31.79;58.17;97695.22;4946993;28;20144;-61
2023/06/11 04:48:53;;;;;;;30.35;19.10;;;;;;;31.76;56.58;97701.41;4948979;28;20055;-61
2023/06/11 04:51:23;;;;;;;29.27;19.02;;;;;;;31.82;57.30;97701.94;4948469;28;20047;-61
2023/06/11 04:53:54;;;;;;;28.88;20.40;;;;;;;31.85;56.23;97706.69;4933231;28;20047;-61
2023/06/11 04:56:25;;;;;;;31.75;20.15;;;;;;;31.85;56.04;97696.53;4951160;28;20615;-61
2023/06/11 04:58:54;;;;;;;26.70;18.83;;;;;;;31.81;58.34;97712.09;4953781;28;20047;-61
2023/06/11 05:01:30;;;;;;;28.20;18.38;;;;;;;31.71;58.49;97712.63;4944863;28;20039;-60
2023/06/11 05:04:01;;;;;;;29.05;18.27;;;;;;;31.40;56.52;97712.59;4959020;28;20484;-59
2023/06/11 05:06:33;;;;;;;31.48;18.20;;;;;;;31.27;56.30;97719.31;4958465;28;20058;-61
2023/06/11 05:09:05;;;;;;;31.02;17.10;;;;;;;31.11;54.73;97717.31;4936170;28;20049;-61
2023/06/11 05:11:34;;;;;;;29.90;16.77;;;;;;;30.88;54.58;97713.56;4960499;28;20597;-61
2023/06/11 05:14:04;;;;;;;26.23;16.85;;;;;;;30.70;54.50;97718.53;4959185;28;20042;-60
2023/06/11 05:16:34;;;;;;;22.92;15.52;;;;;;;30.52;54.90;97716.44;4962145;28;20043;-60
2023/06/11 05:19:05;;;;;;;22.73;15.95;;;;;;;30.57;54.42;97721.66;4957219;28;20446;-59
2023/06/11 05:21:37;;;;;;;20.95;15.32;;;;;;;30.59;54.25;97722.91;4959600;28;20055;-61
2023/06/11 05:24:07;;;;;;;27.25;16.30;;;;;;;30.59;54.18;97727.56;4955395;28;20054;-60
2023/06/11 05:26:40;;;;;;;;;;;;;;;30.67;53.67;97729.38;4965505;28;20046;-61
2023/06/11 05:29:12;;;;;;;20.35;13.98;;;;;;;30.39;53.48;97733.97;4951755;28;20008;-63
2023/06/11 05:31:42;;;;;;;26.15;14.30;;;;;;;30.64;52.16;97728.13;4958011;28;20374;-62
2023/06/11 05:34:13;;;;;;;23.40;14.43;;;;;;;30.70;54.01;97725.94;4942407;28;20134;-62
2023/06/11 05:36:43;;;;;;;19.55;12.73;;;;;;;30.70;53.17;97726.75;4952465;28;20054;-63
2023/06/11 05:39:14;;;;;;;19.55;13.10;;;;;;;30.86;53.62;97725.97;4953281;28;20070;-62
2023/06/11 05:41:44;;;;;;;21.58;13.27;;;;;;;30.98;52.66;97732.19;4966878;28;20055;-62
2023/06/11 05:44:17;;;;;;;22.75;13.63;;;;;;;31.13;53.95;97730.66;4946805;28;20049;-61
2023/06/11 05:46:47;;;;;;;19.65;12.68;;;;;;;31.30;55.10;97724.88;4956646;28;20437;-61
2023/06/11 05:49:17;;;;;;;23.55;13.48;;;;;;;31.57;54.03;97724.03;4954304;28;20054;-61
2023/06/11 05:51:48;;;;;;;22.40;12.63;;;;;;;31.73;54.40;97728.72;4953882;28;21497;-61
2023/06/11 05:54:18;;;;;;;21.55;12.48;;;;;;;31.81;53.65;97723.06;4948479;28;20047;-61
2023/06/11 05:56:48;;;;;;;22.48;13.40;;;;;;;31.76;52.60;97726.06;4957263;28;20121;-62
2023/06/11 05:59:20;;;;;;;23.02;13.55;;;;;;;32.06;51.65;97721.69;4950880;28;20046;-63
2023/06/11 06:01:50;;;;;;;20.05;12.68;;;;;;;32.22;51.54;97729.13;4959827;28;20057;-64
2023/06/11 06:04:22;;;;;;;23.48;14.02;;;;;;;31.82;52.04;97723.84;4961588;28;20054;-64
2023/06/11 06:06:52;;;;;;;23.08;13.32;;;;;;;31.98;53.63;97711.72;4954255;28;20132;-63
2023/06/11 06:09:22;;;;;;;30.83;16.83;;;;;;;32.26;52.38;97711.59;4955961;28;20054;-63
2023/06/11 06:11:54;;;;;;;28.73;19.25;;;;;;;32.30;52.02;97700.69;4937003;28;20114;-63
2023/06/11 06:14:26;;;;;;;25.98;14.98;;;;;;;32.10;51.06;97702.59;4940615;28;20117;-61
2023/06/11 06:16:56;;;;;;;22.58;14.80;;;;;;;32.30;52.36;97706.19;4959186;28;20506;-63
2023/06/11 06:19:32;;;;;;;31.05;18.35;;;;;;;32.03;51.11;97707.91;4951093;28;20768;-67
2023/06/11 06:22:02;;;;;;;32.30;20.27;;;;;;;31.61;52.74;97702.22;4956371;28;20046;-65
2023/06/11 06:24:32;;;;;;;33.35;18.40;;;;;;;31.86;52.53;97705.56;4956214;28;20573;-65
2023/06/11 06:27:02;;;;;;;32.67;18.95;;;;;;;32.38;52.75;97705.97;4957571;28;20749;-62
2023/06/11 06:29:38;;;;;;;33.90;19.98;;;;;;;32.23;52.64;97697.78;4945992;28;20061;-63
2023/06/11 06:32:09;;;;;;;31.80;17.30;;;;;;;32.38;49.39;97702.44;4956710;28;20053;-62
2023/06/11 06:34:39;;;;;;;23.88;16.63;;;;;;;32.52;49.48;97695.31;4958147;28;20057;-63
2023/06/11 06:37:11;;;;;;;32.22;17.67;;;;;;;32.57;49.71;97696.97;4974304;28;20074;-64
2023/06/11 06:39:44;;;;;;;27.52;17.50;;;;;;;32.40;49.54;97695.44;4953732;28;20477;-63
2023/06/11 06:42:13;;;;;;;25.38;14.38;;;;;;;32.81;48.21;97696.69;4956120;28;20050;-62
2023/06/11 06:44:47;;;;;;;19.50;12.60;;;;;;;32.62;45.94;97684.91;4959894;28;20150;-62
2023/06/11 06:47:17;;;;;;;21.42;12.45;;;;;;;33.11;46.40;97685.06;4957163;28;20051;-62
2023/06/11 06:49:49;;;;;;;28.73;15.32;;;;;;;32.98;46.66;97684.47;4956902;28;20061;-62
2023/06/11 06:52:18;;;;;;;17.88;13.73;;;;;;;33.04;47.33;97680.28;4956644;28;20129;-62
2023/06/11 06:54:50;;;;;;;11.10;7.55;;;;;;;33.09;40.74;97684.66;4967035;28;20048;-66
2023/06/11 06:57:19;;;;;;;13.68;9.65;;;;;;;33.09;42.18;97682.72;4954137;28;20087;-63
2023/06/11 06:59:51;;;;;;;14.43;8.35;;;;;;;33.09;42.52;97673.69;4948167;28;20054;-62
2023/06/11 07:02:21;;;;;;;10.77;6.32;;;;;;;32.96;42.30;97673.06;4948908;28;20051;-63
2023/06/11 07:04:51;;;;;;;10.85;6.88;;;;;;;33.09;43.54;97669.00;4951499;28;20047;-60
2023/06/11 07:07:20;;;;;;;11.27;7.20;;;;;;;33.22;44.92;97664.16;4946386;28;20051;-62
2023/06/11 07:09:50;;;;;;;11.25;6.93;;;;;;;32.96;42.67;97662.09;4957137;28;20053;-63
2023/06/11 07:12:20;;;;;;;10.40;6.32;;;;;;;32.97;48.01;97663.69;4947514;28;20059;-63
2023/06/11 07:14:51;;;;;;;10.90;7.22;;;;;;;32.84;45.80;97660.28;4950588;28;20131;-63
2023/06/11 07:17:22;;;;;;;11.50;5.65;;;;;;;33.11;42.36;97650.19;4950582;28;20058;-63
2023/06/11 07:19:53;;;;;;;9.38;5.70;;;;;;;33.03;41.75;97645.75;4948062;28;20062;-71
2023/06/11 07:22:23;;;;;;;8.85;6.40;;;;;;;33.30;42.21;97641.16;4942792;28;20058;-67
2023/06/11 07:24:53;;;;;;;9.73;5.90;;;;;;;33.20;42.41;97639.00;4942658;28;20130;-64
2023/06/11 07:27:23;;;;;;;9.32;5.68;;;;;;;33.22;42.38;97642.19;4944646;28;20047;-62
2023/06/11 07:29:53;;;;;;;13.38;6.05;;;;;;;33.03;41.18;97628.50;4948585;28;20053;-63
2023/06/11 07:32:22;;;;;;;11.68;7.10;;;;;;;33.34;43.78;97640.03;4943667;28;20047;-65
2023/06/11 07:34:52;;;;;;;10.48;6.43;;;;;;;33.00;42.05;97626.47;4953248;28;20063;-67
2023/06/11 07:37:22;;;;;;;18.08;6.63;;;;;;;33.30;43.65;97635.66;4947825;28;20113;-62
2023/06/11 07:39:51;;;;;;;10.13;4.82;;;;;;;33.10;40.37;97629.44;4938921;28;20398;-62
2023/06/11 07:42:21;;;;;;;9.77;5.80;;;;;;;33.27;45.97;97622.66;4952519;28;20047;-68
2023/06/11 07:44:51;;;;;;;12.30;6.05;;;;;;;33.53;42.65;97625.44;4955108;28;20070;-65
2023/06/11 07:47:21;;;;;;;10.25;6.45;;;;;;;33.54;41.61;97621.53;4950626;28;20055;-65
2023/06/11 07:49:51;;;;;;;14.55;7.43;;;;;;;33.44;43.06;97613.13;4950249;28;20745;-70
2023/06/11 07:52:21;;;;;;;11.38;6.57;;;;;;;33.40;43.71;97610.34;4964226;28;20122;-67
2023/06/11 07:54:50;;;;;;;9.65;6.75;;;;;;;33.10;41.13;97607.47;4950698;28;20058;-65
2023/06/11 07:57:20;;;;;;;10.55;7.30;;;;;;;32.73;43.08;97598.97;4958182;28;20126;-65
2023/06/11 07:59:49;;;;;;;16.20;8.00;;;;;;;32.88;45.59;97598.06;4951264;28;20062;-62
2023/06/11 08:02:19;;;;;;;11.55;6.63;;;;;;;33.15;45.55;97600.91;4968099;28;20042;-64
2023/06/11 08:04:50;;;;;;;12.80;6.25;;;;;;;33.33;46.37;97593.72;4969826;28;20050;-66
2023/06/11 08:07:22;;;;;;;14.13;7.47;;;;;;;33.26;43.74;97591.69;4968691;28;20054;-65
2023/06/11 08:09:51;;;;;;;16.70;7.25;;;;;;;33.32;46.66;97594.91;4968550;28;20050;-69
2023/06/11 08:12:21;;;;;;;14.40;6.70;;;;;;;33.05;40.28;97587.78;4954822;28;20047;-65
2023/06/11 08:14:51;;;;;;;15.93;8.13;;;;;;;32.78;44.40;97576.75;4961242;28;20138;-67
2023/06/11 08:17:20;;;;;;;14.77;8.07;;;;;;;32.72;43.24;97586.41;4974217;28;20086;-66
2023/06/11 08:19:50;;;;;;;10.60;7.30;;;;;;;32.44;42.01;97581.16;4973031;28;20047;-65
2023/06/11 08:22:19;;;;;;;13.02;7.15;;;;;;;31.95;45.68;97586.44;4971241;28;20482;-69
2023/06/11 08:24:48;;;;;;;18.23;7.20;;;;;;;32.09;48.25;97573.03;4971785;28;20054;-68
2023/06/11 08:27:18;;;;;;;13.77;7.40;;;;;;;32.13;51.29;97575.06;4973261;28;20580;-67
2023/06/11 08:29:48;;;;;;;12.65;7.05;;;;;;;32.32;49.05;97573.09;4970616;28;20058;-68
2023/06/11 08:32:17;;;;;;;12.27;6.68;;;;;;;32.55;47.05;97570.41;4972105;28;20097;-70
2023/06/11 08:34:47;;;;;;;17.55;9.55;;;;;;;32.67;48.64;97564.78;4976521;28;20125;-70
2023/06/11 08:37:17;;;;;;;15.93;7.10;;;;;;;32.90;46.35;97565.56;4955884;28;20046;-68
2023/06/11 08:39:46;;;;;;;14.73;8.23;;;;;;;33.03;44.28;97562.63;4966077;28;20557;-68
2023/06/11 08:42:15;;;;;;;11.32;6.18;;;;;;;33.07;39.68;97558.00;4965571;28;20054;-68
2023/06/11 08:44:45;;;;;;;13.60;6.72;;;;;;;33.19;41.04;97553.16;4968431;28;20059;-69
2023/06/11 08:47:16;;;;;;;14.05;6.07;;;;;;;33.10;40.73;97558.06;4968125;28;20047;-68
2023/06/11 08:49:46;;;;;;;13.75;6.95;;;;;;;33.04;42.46;97543.06;4968287;28;20050;-68
2023/06/11 08:52:17;;;;;;;23.75;12.82;;;;;;;33.16;46.73;97551.13;4965133;28;20475;-69
2023/06/11 08:54:46;;;;;;;20.92;14.38;;;;;;;32.82;47.80;97549.38;4962402;28;21722;-69
2023/06/11 08:57:16;;;;;;;13.27;7.80;;;;;;;32.72;44.82;97542.53;4963742;28;20051;-63
2023/06/11 08:59:45;;;;;;;10.20;6.57;;;;;;;33.06;42.43;97539.97;4951808;28;20050;-66
2023/06/11 09:02:15;;;;;;;15.20;6.82;;;;;;;33.13;41.90;97545.56;4964527;28;20049;-64
2023/06/11 09:04:45;;;;;;;12.75;7.53;;;;;;;33.21;44.09;97533.56;4953949;28;20047;-67
2023/06/11 09:07:24;;;;;;;15.00;8.20;;;;;;;33.26;48.55;97536.00;4955232;28;20607;-68
2023/06/11 09:10:11;;;;;;;12.80;7.72;;;;;;;33.09;44.92;97528.25;4967437;28;20058;-65
2023/06/11 09:12:41;;;;;;;13.15;7.20;;;;;;;32.99;49.29;97529.66;4965068;28;20050;-64
2023/06/11 09:15:12;;;;;;;10.45;6.20;;;;;;;32.96;47.11;97519.44;4955722;28;20058;-61
2023/06/11 09:17:46;;;;;;;10.32;6.00;;;;;;;33.01;43.52;97515.59;4952989;28;20042;-64
2023/06/11 09:20:16;;;;;;;13.77;7.75;;;;;;;32.79;48.57;97526.22;4955695;28;20049;-68
2023/06/11 09:22:46;;;;;;;12.35;7.18;;;;;;;32.91;44.46;97511.50;4964890;28;20057;-63
2023/06/11 09:25:18;;;;;;;14.15;7.57;;;;;;;33.00;44.10;97516.72;4967857;28;20047;-65
2023/06/11 09:27:48;;;;;;;13.20;6.75;;;;;;;33.04;43.82;97514.84;4954048;28;20046;-65
2023/06/11 09:30:19;;;;;;;9.27;6.43;;;;;;;33.17;42.96;97514.28;4926242;28;20057;-64
2023/06/11 09:32:50;;;;;;;10.43;6.43;;;;;;;32.94;45.52;97508.81;4961681;28;20145;-65
2023/06/11 09:35:21;;;;;;;12.95;7.22;;;;;;;32.71;45.61;97512.72;4959334;28;20055;-62
2023/06/11 09:37:52;;;;;;;11.80;6.60;;;;;;;32.31;47.00;97499.47;4966047;28;20615;-56
2023/06/11 09:40:35;;;;;;;9.48;5.90;;;;;;;32.07;41.02;97504.09;4972378;28;20142;-63
2023/06/11 09:43:06;;;;;;;12.98;6.68;;;;;;;31.86;45.83;97498.19;4956586;28;20530;-63
2023/06/11 09:45:37;;;;;;;10.50;5.68;;;;;;;31.96;42.35;97496.81;4979645;28;20055;-61
2023/06/11 09:48:10;;;;;;;11.35;6.22;;;;;;;31.82;44.53;97488.31;4973383;28;20046;-64
2023/06/11 09:50:42;;;;;;;7.68;5.30;;;;;;;31.80;42.54;97480.47;4966304;28;20802;-63
2023/06/11 09:53:14;;;;;;;9.80;6.13;;;;;;;31.86;41.79;97484.50;4966766;28;20495;-63
2023/06/11 09:55:46;;;;;;;9.73;5.88;;;;;;;32.27;39.73;97474.72;4967786;28;20047;-65
2023/06/11 09:58:33;;;;;;;11.88;6.40;;;;;;;32.22;41.46;97472.28;4967654;28;20046;-63
2023/06/11 10:01:04;;;;;;;13.10;7.10;;;;;;;32.48;40.44;97469.63;4956107;28;20475;-62
2023/06/11 10:03:35;;;;;;;11.65;6.80;;;;;;;32.47;40.47;97462.56;4950322;28;20065;-58
2023/06/11 10:06:10;;;;;;;15.35;6.10;;;;;;;32.10;42.27;97464.22;4974426;28;20370;-61
2023/06/11 10:08:48;;;;;;;12.65;6.20;;;;;;;32.16;41.70;97468.28;4973012;28;20434;-60
2023/06/11 10:11:22;;;;;;;13.07;6.38;;;;;;;32.05;42.59;97456.28;4966013;28;20046;-61
2023/06/11 10:13:59;;;;;;;14.50;6.35;;;;;;;31.84;44.25;97453.94;4967379;28;20046;-65
2023/06/11 10:16:32;;;;;;;13.25;6.80;;;;;;;31.97;42.92;97451.81;4967712;28;20070;-61
2023/06/11 10:19:08;;;;;;;;;;;;;;;31.69;43.21;97457.53;4965154;28;20423;-62
2023/06/11 10:21:49;;;;;;;10.45;5.90;;;;;;;31.41;44.64;97448.72;4952994;28;20497;-65
2023/06/11 10:24:26;;;;;;;18.40;7.43;;;;;;;31.45;42.16;97447.66;4963572;28;20047;-64
2023/06/11 10:27:14;;;;;;;14.77;7.43;;;;;;;32.14;41.98;97445.91;4964076;28;20050;-63
2023/06/11 10:29:48;;;;;;;17.30;6.72;;;;;;;32.59;41.38;97441.59;4946895;28;20049;-61
2023/06/11 10:32:22;;;;;;;14.25;7.15;;;;;;;32.80;38.87;97434.53;4963879;28;20470;-66
2023/06/11 10:35:02;;;;;;;14.50;6.72;;;;;;;33.02;40.35;97435.63;4963533;28;20046;-63
2023/06/11 10:37:37;;;;;;;14.05;6.95;;;;;;;33.17;41.36;97433.91;4964971;28;20125;-67
2023/06/11 10:40:08;;;;;;;13.80;8.27;;;;;;;33.45;42.93;97430.75;4960638;28;20038;-61
2023/06/11 10:42:41;;;;;;;18.33;9.02;;;;;;;33.59;42.14;97433.69;4947457;28;20070;-62
2023/06/11 10:45:14;;;;;;;14.45;8.32;;;;;;;33.70;40.75;97429.91;4946786;28;20562;-61
2023/06/11 10:47:46;;;;;;;16.25;8.38;;;;;;;33.71;40.19;97423.25;4964152;28;20105;-62
2023/06/11 10:50:24;;;;;;;16.85;8.38;;;;;;;33.79;41.13;97422.19;4952996;28;20523;-63
2023/06/11 10:53:06;;;;;;;14.63;7.50;;;;;;;33.81;39.96;97416.31;4972428;28;20711;-61
2023/06/11 10:55:42;;;;;;;9.38;6.30;;;;;;;33.25;36.69;97417.16;4949462;28;20114;-63
2023/06/11 10:58:27;;;;;;;14.15;7.30;;;;;;;32.58;40.08;97409.84;4624440;28;10000178;-65
2023/06/11 11:00:58;;;;;;;15.05;7.57;;;;;;;31.98;42.33;97410.38;4964398;28;20046;-63
2023/06/11 11:03:30;;;;;;;13.05;7.90;;;;;;;31.92;42.78;97411.81;4964143;28;20422;-64
2023/06/11 11:06:00;;;;;;;16.63;7.72;;;;;;;31.78;43.73;97405.31;4969111;28;20045;-64
2023/06/11 11:08:30;;;;;;;13.68;7.85;;;;;;;31.77;43.94;97400.97;4952044;28;20054;-63
2023/06/11 11:11:00;;;;;;;10.13;6.88;;;;;;;31.82;44.52;97404.19;4953385;28;20057;-62
2023/06/11 11:13:31;;;;;;;12.35;7.57;;;;;;;31.81;44.58;97399.09;4949594;28;20046;-61
2023/06/11 11:16:03;;;;;;;15.70;7.30;;;;;;;31.85;44.89;97408.16;4934940;28;20051;-63
2023/06/11 11:18:34;;;;;;;14.57;7.25;;;;;;;31.96;46.32;97398.97;4970324;28;20056;-65
2023/06/11 11:21:04;;;;;;;13.15;6.93;;;;;;;31.96;44.17;97404.47;4954742;28;20062;-63
2023/06/11 11:23:33;;;;;;;12.15;6.68;;;;;;;32.28;43.20;97398.78;4966247;28;20055;-63
2023/06/11 11:26:04;;;;;;;10.27;6.53;;;;;;;32.18;43.31;97393.91;4967368;28;20051;-63
2023/06/11 11:28:35;;;;;;;14.13;6.07;;;;;;;32.14;44.25;97402.06;4968007;28;20046;-64
2023/06/11 11:31:05;;;;;;;9.98;6.47;;;;;;;32.14;43.87;97385.63;4968606;28;20049;-63
2023/06/11 11:33:35;;;;;;;12.32;6.97;;;;;;;32.19;43.20;97388.06;4965223;28;20069;-64
2023/06/11 11:36:05;;;;;;;13.38;6.10;;;;;;;32.21;43.68;97379.50;4948994;28;20079;-64
2023/06/11 11:38:37;;;;;;;13.75;6.47;;;;;;;32.31;44.34;97379.66;4960213;28;20081;-60
2023/06/11 11:41:11;;;;;;;10.48;6.32;;;;;;;32.33;43.22;97385.56;4955657;28;20105;-64